X  Fechar Metar - Info de Aeroporto     ENRY Moss Airport, Rygge
Temperatura
13°C Temperatura
12°C Ptº Orvalho
94% Humidade



Vento
3 M/S
7 MPH
11 KM/H
6 NÓS



130°
SL
Condições Atuais

Pouco Nublado Pouco Nublado
Pressão 1008.81 (hPa) - 29.79 (inHg)
Visibilidade 6 (milha) - 9.7 (km)
Aeroporto
Código-Aeropoto ENRY

Localização: Moss Airport, Rygge
Distância: 12 (km)

Metar:
ENRY 150050Z AUTO 13006KT 9999 FEW018/// SCT023/// 13/12 Q1009

Hora: 15-07-2024 02:50 CEST